createdAt,value
2023-01-19T00:00:27.711Z,9.30
2023-01-19T00:02:54.869Z,6.63
2023-01-19T00:05:21.465Z,8.80
2023-01-19T00:07:48.130Z,6.07
2023-01-19T00:10:14.626Z,6.17
2023-01-19T00:12:40.973Z,5.43
2023-01-19T00:15:08.197Z,7.80
2023-01-19T00:17:35.052Z,6.23
2023-01-19T00:20:01.496Z,5.13
2023-01-19T00:22:27.900Z,7.13
2023-01-19T00:24:54.294Z,5.47
2023-01-19T00:27:20.754Z,6.30
2023-01-19T00:29:47.155Z,7.43
2023-01-19T00:32:13.598Z,7.23
2023-01-19T00:34:42.647Z,6.17
2023-01-19T00:37:10.112Z,6.27
2023-01-19T00:39:36.658Z,5.97
2023-01-19T00:42:22.110Z,8.33
2023-01-19T00:44:48.702Z,4.73
2023-01-19T00:47:15.089Z,7.90
2023-01-19T00:49:41.539Z,6.37
2023-01-19T00:52:08.096Z,7.23
2023-01-19T00:54:34.472Z,7.27
2023-01-19T00:57:01.324Z,7.30
2023-01-19T00:59:27.769Z,6.93
2023-01-19T01:01:54.248Z,7.60
2023-01-19T01:04:20.689Z,8.50
2023-01-19T01:06:47.212Z,7.87
2023-01-19T01:09:13.789Z,6.60
2023-01-19T01:11:43.657Z,6.10
2023-01-19T01:14:12.185Z,8.87
2023-01-19T01:16:39.515Z,10.23
2023-01-19T01:19:06.165Z,7.67
2023-01-19T01:21:34.654Z,6.13
2023-01-19T01:24:01.777Z,8.60
2023-01-19T01:26:28.371Z,7.53
2023-01-19T01:28:54.787Z,12.43
2023-01-19T01:31:21.185Z,8.33
2023-01-19T01:33:47.599Z,6.67
2023-01-19T01:36:14.195Z,6.13
2023-01-19T01:38:41.558Z,7.27
2023-01-19T01:41:09.042Z,9.00
2023-01-19T01:43:50.858Z,5.93
2023-01-19T01:46:18.070Z,7.03
2023-01-19T01:49:00.516Z,7.33
2023-01-19T01:51:29.934Z,9.23
2023-01-19T01:54:14.735Z,8.93
2023-01-19T01:56:46.963Z,9.33
2023-01-19T01:59:25.745Z,7.50
2023-01-19T02:02:15.970Z,7.77
2023-01-19T02:04:47.745Z,8.33
2023-01-19T02:07:40.012Z,7.30
2023-01-19T02:10:25.519Z,8.07
2023-01-19T02:13:10.752Z,7.63
2023-01-19T02:15:37.105Z,8.20
2023-01-19T02:18:03.595Z,6.20
2023-01-19T02:20:31.714Z,9.97
2023-01-19T02:23:03.770Z,7.53
2023-01-19T02:25:30.693Z,6.87
2023-01-19T02:27:57.362Z,9.60
2023-01-19T02:30:24.152Z,8.47
2023-01-19T02:32:50.677Z,8.00
2023-01-19T02:35:17.384Z,6.97
2023-01-19T02:37:44.977Z,6.83
2023-01-19T02:40:15.053Z,9.33
2023-01-19T02:42:53.014Z,8.47
2023-01-19T02:45:21.891Z,6.23
2023-01-19T02:47:51.541Z,9.63
2023-01-19T02:50:50.534Z,10.17
2023-01-19T02:53:45.481Z,6.90
2023-01-19T02:56:30.233Z,7.27
2023-01-19T02:59:33.631Z,7.50
2023-01-19T03:02:16.432Z,6.47
2023-01-19T03:05:00.272Z,5.67
2023-01-19T03:08:04.411Z,7.20
2023-01-19T03:11:05.142Z,6.63
2023-01-19T03:13:52.856Z,7.87
2023-01-19T03:16:21.808Z,7.20
2023-01-19T03:18:55.724Z,5.30
2023-01-19T03:21:27.475Z,6.43
2023-01-19T03:23:58.089Z,5.23
2023-01-19T03:26:29.755Z,6.03
2023-01-19T03:29:00.446Z,4.70
2023-01-19T03:31:31.922Z,7.37
2023-01-19T03:34:03.941Z,4.60
2023-01-19T03:36:34.725Z,6.63
2023-01-19T03:39:04.384Z,6.00
2023-01-19T03:41:34.203Z,4.57
2023-01-19T03:44:01.677Z,10.73
2023-01-19T03:46:28.682Z,5.03
2023-01-19T03:48:55.186Z,5.20
2023-01-19T03:51:21.977Z,4.80
2023-01-19T03:53:49.987Z,4.27
2023-01-19T03:56:24.578Z,6.23
2023-01-19T03:58:51.650Z,4.70
2023-01-19T04:01:22.720Z,6.33
2023-01-19T04:03:50.445Z,4.67
2023-01-19T04:06:17.234Z,4.10
2023-01-19T04:08:43.662Z,6.20
2023-01-19T04:11:10.281Z,4.83
2023-01-19T04:13:36.898Z,5.03
2023-01-19T04:16:04.578Z,5.13
2023-01-19T04:18:34.704Z,4.90
2023-01-19T04:21:03.982Z,5.17
2023-01-19T04:23:30.759Z,5.27
2023-01-19T04:26:02.864Z,7.90
2023-01-19T04:28:29.865Z,5.00
2023-01-19T04:30:56.260Z,4.23
2023-01-19T04:33:22.990Z,3.70
2023-01-19T04:35:52.301Z,3.83
2023-01-19T04:38:20.551Z,5.00
2023-01-19T04:40:48.479Z,4.03
2023-01-19T04:43:15.224Z,3.97
2023-01-19T04:45:41.808Z,4.00
2023-01-19T04:48:08.304Z,4.50
2023-01-19T04:50:34.697Z,3.40
2023-01-19T04:53:02.357Z,3.27
2023-01-19T04:55:28.910Z,6.37
2023-01-19T04:57:55.552Z,3.67
2023-01-19T05:00:22.233Z,4.67
2023-01-19T05:02:48.814Z,3.63
2023-01-19T05:05:15.487Z,3.70
2023-01-19T05:07:42.798Z,5.93
2023-01-19T05:10:09.855Z,4.97
2023-01-19T05:12:36.499Z,5.27
2023-01-19T05:15:03.483Z,5.07
2023-01-19T05:17:30.269Z,4.20
2023-01-19T05:19:56.667Z,4.90
2023-01-19T05:22:23.043Z,5.77
2023-01-19T05:24:49.537Z,4.20
2023-01-19T05:27:16.016Z,7.40
2023-01-19T05:29:42.408Z,6.07
2023-01-19T05:32:08.926Z,6.30
2023-01-19T05:34:35.296Z,5.27
2023-01-19T05:37:01.683Z,5.10
2023-01-19T05:39:28.601Z,6.73
2023-01-19T05:41:54.965Z,7.20
2023-01-19T05:44:22.215Z,6.03
2023-01-19T05:46:48.627Z,8.33
2023-01-19T05:49:15.116Z,7.40
2023-01-19T05:51:45.235Z,6.13
2023-01-19T05:54:17.281Z,5.47
2023-01-19T05:56:43.815Z,6.13
2023-01-19T05:59:10.857Z,6.13
2023-01-19T06:01:39.902Z,8.03
2023-01-19T06:04:06.665Z,4.77
2023-01-19T06:06:33.024Z,7.87
2023-01-19T06:08:59.433Z,9.50
2023-01-19T06:11:26.085Z,6.67
2023-01-19T06:13:52.891Z,6.60
2023-01-19T06:16:19.473Z,7.97
2023-01-19T06:18:52.361Z,8.40
2023-01-19T06:21:18.753Z,6.87
2023-01-19T06:23:45.146Z,9.30
2023-01-19T06:26:11.589Z,6.70
2023-01-19T06:28:37.934Z,9.43
2023-01-19T06:31:04.492Z,11.30
2023-01-19T06:33:31.437Z,16.60
2023-01-19T06:35:57.807Z,8.90
2023-01-19T06:38:24.275Z,14.30
2023-01-19T06:40:58.541Z,9.67
2023-01-19T06:43:26.234Z,10.60
2023-01-19T06:45:52.917Z,9.07
2023-01-19T06:48:19.984Z,11.67
2023-01-19T06:50:47.248Z,10.87
2023-01-19T06:53:16.659Z,10.50
2023-01-19T06:55:46.514Z,12.33
2023-01-19T06:58:13.543Z,15.03
2023-01-19T07:00:40.336Z,11.20
2023-01-19T07:03:21.349Z,16.23
2023-01-19T07:05:51.564Z,14.77
2023-01-19T07:08:18.268Z,13.00
2023-01-19T07:11:25.948Z,10.57
2023-01-19T07:13:31.758Z,10.43
2023-01-19T07:15:58.233Z,13.47
2023-01-19T07:18:24.575Z,12.30
2023-01-19T07:20:51.992Z,10.07
2023-01-19T07:23:18.381Z,11.03
2023-01-19T07:25:46.285Z,13.70
2023-01-19T07:28:15.666Z,11.00
2023-01-19T07:30:43.871Z,12.03
2023-01-19T07:33:10.233Z,12.53
2023-01-19T07:35:36.565Z,13.20
2023-01-19T07:38:03.396Z,12.77
2023-01-19T07:40:29.908Z,11.97
2023-01-19T07:42:56.293Z,12.47
2023-01-19T07:45:22.770Z,10.70
2023-01-19T07:47:49.908Z,12.20
2023-01-19T07:50:17.625Z,14.03
2023-01-19T07:52:44.696Z,10.67
2023-01-19T07:55:11.067Z,14.80
2023-01-19T07:57:37.493Z,12.20
2023-01-19T08:00:05.020Z,11.93
2023-01-19T08:02:33.986Z,15.23
2023-01-19T08:05:00.341Z,12.50
2023-01-19T08:07:26.849Z,12.80
2023-01-19T08:09:53.366Z,12.50
2023-01-19T08:12:19.849Z,18.23
2023-01-19T08:14:46.328Z,16.40
2023-01-19T08:17:13.564Z,17.80
2023-01-19T08:19:41.598Z,15.30
2023-01-19T08:22:08.166Z,14.53
2023-01-19T08:24:34.541Z,18.63
2023-01-19T08:27:02.390Z,14.77
2023-01-19T08:29:32.077Z,16.93
2023-01-19T08:32:00.114Z,19.30
2023-01-19T08:34:27.139Z,15.70
2023-01-19T08:36:54.018Z,18.77
2023-01-19T08:39:20.485Z,20.10
2023-01-19T08:41:46.885Z,17.33
2023-01-19T08:44:13.309Z,13.47
2023-01-19T08:46:39.698Z,12.07
2023-01-19T08:49:06.152Z,15.60
2023-01-19T08:51:32.894Z,16.93
2023-01-19T08:53:59.296Z,14.87
2023-01-19T08:56:25.754Z,15.83
2023-01-19T08:59:07.803Z,15.67
2023-01-19T09:01:36.971Z,18.20
2023-01-19T09:04:03.593Z,15.53
2023-01-19T09:06:29.994Z,16.77
2023-01-19T09:08:57.508Z,18.70
2023-01-19T09:11:23.898Z,18.17
2023-01-19T09:13:50.573Z,17.87
2023-01-19T09:16:16.988Z,18.97
2023-01-19T09:18:45.033Z,14.17
2023-01-19T09:21:11.761Z,15.17
2023-01-19T09:23:38.227Z,13.70
2023-01-19T09:26:05.888Z,13.87
2023-01-19T09:28:32.460Z,13.43
2023-01-19T09:30:59.550Z,14.77
2023-01-19T09:33:35.628Z,13.23
2023-01-19T09:36:02.292Z,16.17
2023-01-19T09:38:32.557Z,12.97
2023-01-19T09:41:00.325Z,15.30
2023-01-19T09:43:41.399Z,14.60
2023-01-19T09:46:30.142Z,14.43
2023-01-19T09:48:59.653Z,14.93
2023-01-19T09:51:28.869Z,17.17
2023-01-19T09:54:14.523Z,15.30
2023-01-19T09:56:42.358Z,15.67
2023-01-19T09:59:29.865Z,17.83
2023-01-19T10:02:02.295Z,16.37
2023-01-19T10:04:41.939Z,18.50
2023-01-19T10:07:34.695Z,21.33
2023-01-19T10:10:20.757Z,26.30
2023-01-19T10:13:15.277Z,25.63
2023-01-19T10:15:47.912Z,23.43
2023-01-19T10:18:36.802Z,20.20
2023-01-19T10:21:11.008Z,21.37
2023-01-19T10:23:52.183Z,27.17
2023-01-19T10:26:23.906Z,24.27
2023-01-19T10:28:55.700Z,21.33
2023-01-19T10:31:24.233Z,24.07
2023-01-19T10:33:52.202Z,20.27
2023-01-19T10:36:24.319Z,20.70
2023-01-19T10:38:51.900Z,23.43
2023-01-19T10:41:24.339Z,21.67
2023-01-19T10:43:59.484Z,26.03
2023-01-19T10:46:45.562Z,21.80
2023-01-19T10:49:37.845Z,24.87
2023-01-19T10:52:08.027Z,30.20
2023-01-19T10:54:37.287Z,22.23
2023-01-19T10:57:08.043Z,27.40
2023-01-19T10:59:46.544Z,24.90
2023-01-19T11:02:49.272Z,24.57
2023-01-19T11:05:27.896Z,26.07
2023-01-19T11:07:54.324Z,30.00
2023-01-19T11:10:29.104Z,32.00
2023-01-19T11:13:12.406Z,29.10
2023-01-19T11:15:44.214Z,27.13
2023-01-19T11:18:30.522Z,31.37
2023-01-19T11:21:02.130Z,28.47
2023-01-19T11:23:32.492Z,26.20
2023-01-19T11:26:01.554Z,28.63
2023-01-19T11:28:35.577Z,26.10
2023-01-19T11:31:15.152Z,36.40
2023-01-19T11:33:49.049Z,23.17
2023-01-19T11:36:20.978Z,23.43
2023-01-19T11:38:52.864Z,27.17
2023-01-19T11:41:27.826Z,23.83
2023-01-19T11:44:17.283Z,24.07
2023-01-19T11:46:47.985Z,22.40
2023-01-19T11:49:27.328Z,23.33
2023-01-19T11:52:04.494Z,20.67
2023-01-19T11:54:37.074Z,22.37
2023-01-19T11:57:11.743Z,29.93
2023-01-19T11:59:38.203Z,28.37
2023-01-19T12:02:16.572Z,22.57
2023-01-19T12:04:44.511Z,29.93
2023-01-19T12:07:13.305Z,22.47
2023-01-19T12:09:45.447Z,23.70
2023-01-19T12:12:27.336Z,22.33
2023-01-19T12:15:05.031Z,24.70
2023-01-19T12:17:57.822Z,29.47
2023-01-19T12:20:24.086Z,21.97
2023-01-19T12:23:18.286Z,17.73
2023-01-19T12:26:01.561Z,21.57
2023-01-19T12:28:33.768Z,27.20
2023-01-19T12:31:01.699Z,20.23
2023-01-19T12:33:28.912Z,20.40
2023-01-19T12:36:00.732Z,17.40
2023-01-19T12:38:35.293Z,19.60
2023-01-19T12:41:22.053Z,17.63
2023-01-19T12:44:09.350Z,20.27
2023-01-19T12:46:38.188Z,19.00
2023-01-19T12:49:26.271Z,26.03
2023-01-19T12:52:11.842Z,24.13
2023-01-19T12:54:43.417Z,21.53
2023-01-19T12:57:24.706Z,18.77
2023-01-19T13:00:07.695Z,17.43
2023-01-19T13:02:46.231Z,22.63
2023-01-19T13:05:21.840Z,24.20
2023-01-19T13:08:06.651Z,25.07
2023-01-19T13:11:09.562Z,22.43
2023-01-19T13:13:38.182Z,21.17
2023-01-19T13:16:20.200Z,21.93
2023-01-19T13:18:49.779Z,24.07
2023-01-19T13:21:35.342Z,22.37
2023-01-19T13:24:07.611Z,18.40
2023-01-19T13:26:38.560Z,21.13
2023-01-19T13:29:13.993Z,23.53
2023-01-19T13:31:42.985Z,20.03
2023-01-19T13:34:17.050Z,16.77
2023-01-19T13:36:46.410Z,21.43
2023-01-19T13:39:20.164Z,19.70
2023-01-19T13:41:47.921Z,18.67
2023-01-19T13:44:25.573Z,19.73
2023-01-19T13:46:53.905Z,17.70
2023-01-19T13:49:23.046Z,20.47
2023-01-19T13:52:04.798Z,18.27
2023-01-19T13:54:31.441Z,27.13
2023-01-19T13:56:57.984Z,17.90
2023-01-19T13:59:24.385Z,23.27
2023-01-19T14:01:51.677Z,20.73
2023-01-19T14:04:28.683Z,24.30
2023-01-19T14:07:04.811Z,22.53
2023-01-19T14:09:31.942Z,21.90
2023-01-19T14:12:06.495Z,23.47
2023-01-19T14:14:33.278Z,20.13
2023-01-19T14:16:59.978Z,22.10
2023-01-19T14:19:26.450Z,21.87
2023-01-19T14:22:03.963Z,20.07
2023-01-19T14:24:33.146Z,21.90
2023-01-19T14:27:23.021Z,18.20
2023-01-19T14:29:53.499Z,20.10
2023-01-19T14:32:22.902Z,15.27
2023-01-19T14:35:09.836Z,23.50
2023-01-19T14:37:38.129Z,22.87
2023-01-19T14:40:21.607Z,18.43
2023-01-19T14:42:57.424Z,15.37
2023-01-19T14:45:30.297Z,15.70
2023-01-19T14:48:05.160Z,21.73
2023-01-19T14:50:37.854Z,18.80
2023-01-19T14:53:18.165Z,15.73
2023-01-19T14:55:51.172Z,18.10
2023-01-19T14:58:20.302Z,15.43
2023-01-19T15:00:48.886Z,14.90
2023-01-19T15:03:15.991Z,13.97
2023-01-19T15:05:46.827Z,15.37
2023-01-19T15:08:25.457Z,12.53
2023-01-19T15:10:51.991Z,12.83
2023-01-19T15:13:21.919Z,17.97
2023-01-19T15:15:49.934Z,15.77
2023-01-19T15:18:27.656Z,17.80
2023-01-19T15:20:55.161Z,15.20
2023-01-19T15:23:21.535Z,13.47
2023-01-19T15:25:48.772Z,12.23
2023-01-19T15:28:19.451Z,13.73
2023-01-19T15:30:46.102Z,18.63
2023-01-19T15:33:19.556Z,13.37
2023-01-19T15:35:45.907Z,12.83
2023-01-19T15:38:12.301Z,12.17
2023-01-19T15:40:38.830Z,15.67
2023-01-19T15:43:05.476Z,17.43
2023-01-19T15:45:48.378Z,14.10
2023-01-19T15:48:14.779Z,12.80
2023-01-19T15:50:43.662Z,14.73
2023-01-19T15:53:14.428Z,12.97
2023-01-19T15:55:40.966Z,14.80
2023-01-19T15:58:07.299Z,17.27
2023-01-19T16:00:34.926Z,14.07
2023-01-19T16:03:02.259Z,12.47
2023-01-19T16:05:41.993Z,21.83
2023-01-19T16:08:09.191Z,17.37
2023-01-19T16:10:35.616Z,13.53
2023-01-19T16:13:03.823Z,8.93
2023-01-19T16:15:30.362Z,13.17
2023-01-19T16:17:56.683Z,10.53
2023-01-19T16:20:23.116Z,8.80
2023-01-19T16:22:49.602Z,10.13
2023-01-19T16:25:15.988Z,11.50
2023-01-19T16:27:42.397Z,15.27
2023-01-19T16:30:12.246Z,14.73
2023-01-19T16:32:38.844Z,16.97
2023-01-19T16:35:05.801Z,8.93
2023-01-19T16:37:32.204Z,11.77
2023-01-19T16:39:58.629Z,8.27
2023-01-19T16:42:25.355Z,11.00
2023-01-19T16:44:51.783Z,10.70
2023-01-19T16:47:18.265Z,12.83
2023-01-19T16:49:44.618Z,8.13
2023-01-19T16:52:11.057Z,11.53
2023-01-19T16:54:39.350Z,11.27
2023-01-19T16:57:05.857Z,10.70
2023-01-19T16:59:32.494Z,10.73
2023-01-19T17:01:59.149Z,10.27
2023-01-19T17:04:27.055Z,9.27
2023-01-19T17:06:54.675Z,8.83
2023-01-19T17:09:21.303Z,6.10
2023-01-19T17:11:47.938Z,12.17
2023-01-19T17:14:17.285Z,9.50
2023-01-19T17:16:44.157Z,10.20
2023-01-19T17:19:14.806Z,7.10
2023-01-19T17:21:41.192Z,6.43
2023-01-19T17:24:07.643Z,7.67
2023-01-19T17:26:34.052Z,9.73
2023-01-19T17:29:02.073Z,9.43
2023-01-19T17:31:44.394Z,8.53
2023-01-19T17:34:10.796Z,13.60
2023-01-19T17:36:37.951Z,8.03
2023-01-19T17:39:06.931Z,6.83
2023-01-19T17:41:35.345Z,6.17
2023-01-19T17:44:03.876Z,5.33
2023-01-19T17:46:31.136Z,5.83
2023-01-19T17:49:00.288Z,6.93
2023-01-19T17:51:27.698Z,7.77
2023-01-19T17:53:55.030Z,9.90
2023-01-19T17:56:27.352Z,11.30
2023-01-19T17:58:53.993Z,17.90
2023-01-19T18:01:22.352Z,23.57
2023-01-19T18:03:49.010Z,18.90
2023-01-19T18:06:15.756Z,13.03
2023-01-19T18:08:43.993Z,11.33
2023-01-19T18:11:10.789Z,14.63
2023-01-19T18:13:37.997Z,11.70
2023-01-19T18:16:08.263Z,7.80
2023-01-19T18:18:35.479Z,7.30
2023-01-19T18:21:04.084Z,8.13
2023-01-19T18:23:30.521Z,8.20
2023-01-19T18:26:05.453Z,7.87
2023-01-19T18:28:32.635Z,7.07
2023-01-19T18:30:59.483Z,8.67
2023-01-19T18:33:27.704Z,4.97
2023-01-19T18:35:55.204Z,10.30
2023-01-19T18:38:21.668Z,9.13
2023-01-19T18:40:48.293Z,9.97
2023-01-19T18:43:15.082Z,9.17
2023-01-19T18:45:42.037Z,10.30
2023-01-19T18:48:14.478Z,13.17
2023-01-19T18:50:40.922Z,9.80
2023-01-19T18:53:07.329Z,11.43
2023-01-19T18:55:33.789Z,15.17
2023-01-19T18:58:00.436Z,11.33
2023-01-19T19:00:26.917Z,12.83
2023-01-19T19:02:55.562Z,16.27
2023-01-19T19:05:21.970Z,13.93
2023-01-19T19:07:48.526Z,13.03
2023-01-19T19:10:15.542Z,13.03
2023-01-19T19:12:41.960Z,14.30
2023-01-19T19:15:09.113Z,9.57
2023-01-19T19:17:35.736Z,14.00
2023-01-19T19:20:02.749Z,5.93
2023-01-19T19:22:29.143Z,8.67
2023-01-19T19:24:55.477Z,7.77
2023-01-19T19:27:21.803Z,6.10
2023-01-19T19:29:48.687Z,8.90
2023-01-19T19:32:20.222Z,7.07
2023-01-19T19:34:53.185Z,6.90
2023-01-19T19:37:19.948Z,6.10
2023-01-19T19:39:47.537Z,7.70
2023-01-19T19:42:13.929Z,7.83
2023-01-19T19:44:40.406Z,4.97
2023-01-19T19:47:06.896Z,7.73
2023-01-19T19:49:33.453Z,5.87
2023-01-19T19:52:00.005Z,5.77
2023-01-19T19:54:26.386Z,9.13
2023-01-19T19:56:53.683Z,9.60
2023-01-19T19:59:31.534Z,8.10
2023-01-19T20:01:57.968Z,6.13
2023-01-19T20:04:25.281Z,9.93
2023-01-19T20:06:51.695Z,5.70
2023-01-19T20:09:18.074Z,7.13
2023-01-19T20:11:46.602Z,6.10
2023-01-19T20:14:15.995Z,7.30
2023-01-19T20:16:42.895Z,5.87
2023-01-19T20:19:09.576Z,7.50
2023-01-19T20:21:37.597Z,8.83
2023-01-19T20:24:06.988Z,10.90
2023-01-19T20:26:35.926Z,18.23
2023-01-19T20:29:06.747Z,23.73
2023-01-19T20:31:40.073Z,30.73
2023-01-19T20:34:09.887Z,25.47
2023-01-19T20:36:36.781Z,27.50
2023-01-19T20:39:08.425Z,19.50
2023-01-19T20:41:42.781Z,15.10
2023-01-19T20:44:18.761Z,16.67
2023-01-19T20:46:45.629Z,13.17
2023-01-19T20:49:12.268Z,7.50
2023-01-19T20:51:43.224Z,13.10
2023-01-19T20:54:11.184Z,12.80
2023-01-19T20:56:38.206Z,13.63
2023-01-19T20:59:04.546Z,13.03
2023-01-19T21:01:31.248Z,16.87
2023-01-19T21:03:57.705Z,14.97
2023-01-19T21:06:24.864Z,16.63
2023-01-19T21:08:51.790Z,17.80
2023-01-19T21:11:20.814Z,15.80
2023-01-19T21:13:48.205Z,13.07
2023-01-19T21:16:15.477Z,14.20
2023-01-19T21:18:41.894Z,18.50
2023-01-19T21:21:14.955Z,14.60
2023-01-19T21:23:47.604Z,15.17
2023-01-19T21:26:14.578Z,16.37
2023-01-19T21:28:41.491Z,16.90
2023-01-19T21:31:10.133Z,15.40
2023-01-19T21:33:36.472Z,13.27
2023-01-19T21:36:03.080Z,17.63
2023-01-19T21:38:30.069Z,15.33
2023-01-19T21:40:57.580Z,13.20
2023-01-19T21:43:25.488Z,14.53
2023-01-19T21:45:52.002Z,17.50
2023-01-19T21:48:19.614Z,16.43
2023-01-19T21:50:46.097Z,16.23
2023-01-19T21:53:12.545Z,14.30
2023-01-19T21:55:43.570Z,13.63
2023-01-19T21:58:09.917Z,13.47
2023-01-19T22:00:36.286Z,15.87
2023-01-19T22:03:04.423Z,12.80
2023-01-19T22:05:36.783Z,12.73
2023-01-19T22:08:04.343Z,10.40
2023-01-19T22:10:30.781Z,12.93
2023-01-19T22:12:57.138Z,11.90
2023-01-19T22:15:23.573Z,13.97
2023-01-19T22:17:49.933Z,14.67
2023-01-19T22:20:16.556Z,10.27
2023-01-19T22:22:42.915Z,8.57
2023-01-19T22:25:09.652Z,9.20
2023-01-19T22:27:37.408Z,12.37
2023-01-19T22:30:04.040Z,13.50
2023-01-19T22:32:31.293Z,11.37
2023-01-19T22:34:57.628Z,11.83
2023-01-19T22:37:23.975Z,12.40
2023-01-19T22:39:50.393Z,14.50
2023-01-19T22:42:16.786Z,12.57
2023-01-19T22:44:43.517Z,12.17
2023-01-19T22:47:10.111Z,16.97
2023-01-19T22:49:36.614Z,13.27
2023-01-19T22:52:03.100Z,14.57
2023-01-19T22:54:30.310Z,12.50
2023-01-19T22:56:56.690Z,10.67
2023-01-19T22:59:23.036Z,11.50
2023-01-19T23:01:50.020Z,11.73
2023-01-19T23:04:16.633Z,10.10
2023-01-19T23:06:43.649Z,11.07
2023-01-19T23:09:12.731Z,11.73
2023-01-19T23:11:41.619Z,12.63
2023-01-19T23:14:12.274Z,14.83
2023-01-19T23:16:38.782Z,10.03
2023-01-19T23:19:05.486Z,13.27
2023-01-19T23:21:32.450Z,13.67
2023-01-19T23:24:01.655Z,12.03
2023-01-19T23:26:30.707Z,11.03
2023-01-19T23:28:59.527Z,12.97
2023-01-19T23:31:27.215Z,14.87
2023-01-19T23:33:56.733Z,9.47
2023-01-19T23:36:25.972Z,12.57
2023-01-19T23:39:04.953Z,13.50
2023-01-19T23:41:34.511Z,13.17
2023-01-19T23:44:01.471Z,10.93
2023-01-19T23:46:28.684Z,9.90
2023-01-19T23:48:55.498Z,10.17
2023-01-19T23:51:24.853Z,9.40
2023-01-19T23:53:51.842Z,10.07
2023-01-19T23:56:20.985Z,9.60
2023-01-19T23:58:52.074Z,17.27
